LRBC/BCM METAR and TAF weather

Enter ICAO airport designator
Station Type Date Time Source
LRBC METAR 2022/11/30 10:30 UTC NOAA

LRBC 301030Z 35008KT 8000 -RA BKN006 OVC010 03/01 Q1027


Station Type Date Time Source
LRBC Decoded METAR 2022/11/30 10:30 UTC NOAA

Bacau, Romania (LRBC) 46-35N 026-58E 190M
Nov 30, 2022 - 05:30 AM EST / 2022.11.30 1030 UTC
Wind: from the N (350 degrees) at 9 MPH (8 KT):0
Visibility: 4 mile(s):0
Sky conditions: overcast
Weather: light rain
Temperature: 37 F (3 C)
Dew Point: 33 F (1 C)
Relative Humidity: 86%
Pressure (altimeter): 30.33 in. Hg (1027 hPa)
ob: LRBC 301030Z 35008KT 8000 -RA BKN006 OVC010 03/01 Q1027
cycle: 10

Station Type Date Time Source
LRBC TAF 2010/08/31 20:30 UTC NOAA

TAF LRBC 312030Z 3121/0203 CNL

Example: see airport list